Terminal Aerodrome Forecast
Issued by NWS Twin Cities, MN

Home | Current Version | Previous Version | Text Only | Print | Product List | Glossary On
Versions: 1 2 3 4 5 6 7 8 9 10 11 12
000
FTUS43 KMPX 290500
TAFEAU
TAF
KEAU 290540Z 2906/3006 14008KT P6SM VCSH BKN008 OVC020
      TEMPO 2906/2908 OVC020
     FM290900 14007KT 5SM BR VCSH OVC005
      TEMPO 2911/2915 3SM -SHRA BR OVC003
     FM291600 18009KT P6SM BKN007 OVC025
     FM291900 20008KT P6SM VCSH SCT025 OVC120 PROB30 2919/2923 5SM
      -TSRA OVC025CB=

USA.gov is the U.S. government's official web portal to all federal, state and local government web resources and services.